Dades meteomassalio
Diari Summary for Gener 7, 2017 Units:  English    Metric   Both
« Previous Day
Next Day »
Diari Semanal Mensual Anual Personalitzat
  Maxima: Minima: Mijana:
Temperatura: 50.5 °F 25.3 °F 34.3 °F
Rosada: 30.6 °F 21.4 °F 24.6 °F
Humitat: 88 % 33 % 71 %
Velocitat del vent: 0 mph 0 mph 0 mph
Racha vent: 0 mph - -
Vent:- - North
Pressio: 30.5 in 30.4 in -
Pluja: 0 in    
Historical Graphs
 
 
Tabular Data for Gener 7, 2017
Time Temperature Dew Point Pressure Wind Wind Speed Wind Gust Humidity Rainfall Rate (Hourly) solar Conditions
00:04 27.5 °F 23.9 °F 30.5 in Calm     86 % 0 in 0.0 W/m2 CLR
00:09 27.3 °F 23.7 °F 30.5 in Calm     86 % 0 in 0.0 W/m2 CLR
00:14 27.1 °F 23.5 °F 30.5 in Calm     86 % 0 in 0.0 W/m2 CLR
00:20 27.1 °F 23.7 °F 30.5 in Calm     87 % 0 in 0.0 W/m2 CLR
00:25 27.1 °F 23.7 °F 30.5 in Calm     87 % 0 in 0.0 W/m2 CLR
00:30 27.7 °F 24.3 °F 30.5 in Calm     87 % 0 in 0.0 W/m2 CLR
00:35 27.7 °F 24.1 °F 30.5 in Calm     86 % 0 in 0.0 W/m2 CLR
00:40 27.7 °F 24.1 °F 30.5 in Calm     86 % 0 in 0.0 W/m2 CLR
00:45 27.7 °F 24.1 °F 30.5 in Calm     86 % 0 in 0.0 W/m2 CLR
00:50 27.7 °F 24.1 °F 30.5 in Calm     86 % 0 in 0.0 W/m2 CLR
00:55 27.7 °F 24.1 °F 30.5 in Calm     86 % 0 in 0.0 W/m2 CLR
01:00 27.9 °F 24.3 °F 30.5 in Calm     86 % 0 in 0.0 W/m2 CLR
01:05 27.7 °F 23.7 °F 30.5 in Calm     85 % 0 in 0.0 W/m2 CLR
01:10 27.7 °F 23.7 °F 30.5 in Calm     85 % 0 in 0.0 W/m2 CLR
01:15 27.5 °F 23.9 °F 30.5 in Calm     86 % 0 in 0.0 W/m2 CLR
01:20 27.5 °F 23.9 °F 30.5 in Calm     86 % 0 in 0.0 W/m2 CLR
01:25 27.3 °F 23.7 °F 30.5 in Calm     86 % 0 in 0.0 W/m2 CLR
01:30 27.3 °F 23.7 °F 30.5 in Calm     86 % 0 in 0.0 W/m2 CLR
01:35 27.3 °F 23.7 °F 30.5 in Calm     86 % 0 in 0.0 W/m2 CLR
01:40 27.1 °F 23.5 °F 30.5 in Calm     86 % 0 in 0.0 W/m2 CLR
01:45 27 °F 23.4 °F 30.5 in Calm     86 % 0 in 0.0 W/m2 CLR
01:50 27.1 °F 23.7 °F 30.5 in Calm     87 % 0 in 0.0 W/m2 CLR
01:55 27.3 °F 23.7 °F 30.5 in Calm     86 % 0 in 0.0 W/m2 CLR
02:00 27.5 °F 23.9 °F 30.5 in Calm     86 % 0 in 0.0 W/m2 CLR
02:05 27.9 °F 24.3 °F 30.5 in Calm     86 % 0 in 0.0 W/m2 CLR
02:10 28 °F 24.1 °F 30.5 in Calm     85 % 0 in 0.0 W/m2 CLR
02:15 27.9 °F 23.9 °F 30.5 in Calm     85 % 0 in 0.0 W/m2 CLR
02:20 27.7 °F 23.7 °F 30.5 in Calm     85 % 0 in 0.0 W/m2 CLR
02:25 27.3 °F 23.5 °F 30.5 in Calm     85 % 0 in 0.0 W/m2 CLR
02:30 27.5 °F 23.9 °F 30.5 in Calm     86 % 0 in 0.0 W/m2 CLR
02:35 27.3 °F 23.5 °F 30.5 in Calm     85 % 0 in 0.0 W/m2 CLR
02:40 27.1 °F 23.2 °F 30.5 in Calm     85 % 0 in 0.0 W/m2 CLR
02:45 27.1 °F 23.5 °F 30.5 in Calm     86 % 0 in 0.0 W/m2 CLR
02:50 27.1 °F 23.5 °F 30.5 in Calm     86 % 0 in 0.0 W/m2 CLR
02:55 27.3 °F 23.7 °F 30.5 in Calm     86 % 0 in 0.0 W/m2 CLR
03:00 27.5 °F 23.9 °F 30.5 in Calm     86 % 0 in 0.0 W/m2 CLR
03:05 27.5 °F 23.9 °F 30.5 in Calm     86 % 0 in 0.0 W/m2 CLR
03:10 27.3 °F 23.7 °F 30.5 in Calm     86 % 0 in 0.0 W/m2 CLR
03:15 27.3 °F 23.7 °F 30.5 in Calm     86 % 0 in 0.0 W/m2 CLR
03:20 27.3 °F 23.7 °F 30.5 in Calm     86 % 0 in 0.0 W/m2 CLR
03:25 27.7 °F 24.3 °F 30.5 in Calm     87 % 0 in 0.0 W/m2 CLR
03:30 28 °F 24.4 °F 30.5 in Calm     86 % 0 in 0.0 W/m2 CLR
03:35 28 °F 24.3 °F 30.5 in Calm     85 % 0 in 0.0 W/m2 CLR
03:40 28 °F 24.1 °F 30.5 in Calm     85 % 0 in 0.0 W/m2 CLR
03:45 27.9 °F 23.9 °F 30.5 in Calm     85 % 0 in 0.0 W/m2 CLR
03:50 27.7 °F 24.1 °F 30.5 in Calm     86 % 0 in 0.0 W/m2 CLR
03:55 27.7 °F 23.7 °F 30.5 in Calm     85 % 0 in 0.0 W/m2 CLR
04:00 27.3 °F 23.4 °F 30.5 in Calm     85 % 0 in 0.0 W/m2 CLR
04:05 27.1 °F 23.5 °F 30.5 in Calm     86 % 0 in 0.0 W/m2 CLR
04:10 27.1 °F 23.5 °F 30.5 in Calm     86 % 0 in 0.0 W/m2 CLR
04:15 27 °F 23.4 °F 30.5 in Calm     86 % 0 in 0.0 W/m2 CLR
04:20 27.1 °F 23.7 °F 30.5 in Calm     87 % 0 in 0.0 W/m2 CLR
04:25 27 °F 23.5 °F 30.5 in Calm     87 % 0 in 0.0 W/m2 CLR
04:30 26.8 °F 23.4 °F 30.5 in Calm     87 % 0 in 0.0 W/m2 CLR
04:35 27 °F 23.5 °F 30.5 in Calm     87 % 0 in 0.0 W/m2 CLR
04:40 27.1 °F 23.7 °F 30.5 in Calm     87 % 0 in 0.0 W/m2 CLR
04:45 27.3 °F 23.9 °F 30.5 in Calm     87 % 0 in 0.0 W/m2 CLR
04:50 27.3 °F 23.7 °F 30.5 in Calm     86 % 0 in 0.0 W/m2 CLR
04:55 27.3 °F 23.7 °F 30.5 in Calm     86 % 0 in 0.0 W/m2 CLR
05:00 27.3 °F 23.7 °F 30.5 in Calm     86 % 0 in 0.0 W/m2 CLR
05:05 27.1 °F 23.5 °F 30.5 in Calm     86 % 0 in 0.0 W/m2 CLR
05:10 27.1 °F 23.5 °F 30.5 in Calm     86 % 0 in 0.0 W/m2 CLR
05:15 27.1 °F 23.5 °F 30.5 in Calm     86 % 0 in 0.0 W/m2 CLR
05:20 27.1 °F 23.7 °F 30.5 in Calm     87 % 0 in 0.0 W/m2 CLR
05:25 27.1 °F 23.7 °F 30.5 in Calm     87 % 0 in 0.0 W/m2 CLR
05:30 27.3 °F 24.1 °F 30.5 in Calm     87 % 0 in 0.0 W/m2 CLR
05:36 27.3 °F 23.7 °F 30.5 in Calm     86 % 0 in 0.0 W/m2 CLR
05:41 27.3 °F 23.7 °F 30.5 in Calm     86 % 0 in 0.0 W/m2 CLR
05:46 27.1 °F 23.5 °F 30.5 in Calm     86 % 0 in 0.0 W/m2 CLR
05:51 27 °F 23.4 °F 30.5 in Calm     86 % 0 in 0.0 W/m2 CLR
05:56 27.1 °F 23.5 °F 30.5 in Calm     86 % 0 in 0.0 W/m2 CLR
06:01 27.1 °F 23.5 °F 30.5 in Calm     86 % 0 in 0.0 W/m2 CLR
06:06 27 °F 23.4 °F 30.5 in Calm     86 % 0 in 0.0 W/m2 CLR
06:11 27 °F 23.4 °F 30.5 in Calm     86 % 0 in 0.0 W/m2 CLR
06:16 26.8 °F 23.2 °F 30.5 in Calm     86 % 0 in 0.0 W/m2 CLR
06:21 26.4 °F 22.8 °F 30.5 in Calm     86 % 0 in 0.0 W/m2 CLR
06:26 26.4 °F 23.2 °F 30.5 in Calm     87 % 0 in 0.0 W/m2 CLR
06:31 26.1 °F 22.5 °F 30.5 in Calm     86 % 0 in 0.0 W/m2 CLR
06:36 25.9 °F 22.6 °F 30.5 in Calm     87 % 0 in 0.0 W/m2 CLR
06:41 25.9 °F 22.5 °F 30.5 in Calm     87 % 0 in 0.0 W/m2 CLR
06:46 25.7 °F 22.6 °F 30.5 in Calm     88 % 0 in 0.0 W/m2 CLR
06:51 25.7 °F 22.6 °F 30.5 in Calm     88 % 0 in 0.0 W/m2 CLR
06:56 25.7 °F 22.6 °F 30.5 in Calm     88 % 0 in 0.0 W/m2 CLR
07:01 25.9 °F 22.6 °F 30.5 in Calm     88 % 0 in 0.0 W/m2 CLR
07:06 25.9 °F 22.8 °F 30.5 in Calm     88 % 0 in 0.0 W/m2 CLR
07:11 26.1 °F 22.6 °F 30.5 in Calm     87 % 0 in 0.0 W/m2 CLR
07:16 26.1 °F 22.6 °F 30.5 in Calm     87 % 0 in 0.0 W/m2 CLR
07:21 25.9 °F 22.5 °F 30.5 in Calm     87 % 0 in 0.0 W/m2 CLR
07:26 25.7 °F 22.5 °F 30.5 in Calm     87 % 0 in 0.0 W/m2 CLR
07:31 25.7 °F 22.5 °F 30.5 in Calm     87 % 0 in 0.0 W/m2 CLR
07:36 25.5 °F 22.3 °F 30.5 in Calm     87 % 0 in 0.0 W/m2 CLR
07:41 25.3 °F 22.1 °F 30.5 in Calm     87 % 0 in 0.0 W/m2 CLR
07:46 25.3 °F 21.9 °F 30.5 in Calm     87 % 0 in 0.0 W/m2 CLR
07:51 25.3 °F 21.9 °F 30.5 in Calm     87 % 0 in 0.0 W/m2 CLR
07:56 25.3 °F 22.1 °F 30.5 in Calm     87 % 0 in 0.0 W/m2 CLR
08:01 25.3 °F 22.1 °F 30.5 in Calm     87 % 0 in 0.0 W/m2 CLR
08:06 25.5 °F 22.5 °F 30.5 in Calm     88 % 0 in 0.0 W/m2 CLR
08:11 25.9 °F 22.6 °F 30.5 in Calm     87 % 0 in 0.0 W/m2 CLR
08:16 26.2 °F 22.6 °F 30.5 in Calm     86 % 0 in 0.0 W/m2 CLR
08:21 26.6 °F 23 °F 30.5 in Calm     86 % 0 in 0.0 W/m2 CLR
08:26 26.8 °F 22.8 °F 30.5 in Calm     85 % 0 in 0.0 W/m2 OVC
08:31 26.2 °F 22.1 °F 30.5 in Calm     84 % 0 in 5.0 W/m2 BKN
08:36 25.9 °F 21.9 °F 30.5 in Calm     85 % 0 in 9.0 W/m2 BKN
08:41 25.9 °F 21.9 °F 30.5 in Calm     85 % 0 in 12.0 W/m2 BKN
08:46 26.1 °F 22.5 °F 30.5 in Calm     86 % 0 in 14.0 W/m2 BKN
08:51 26.6 °F 23 °F 30.5 in Calm     86 % 0 in 18.0 W/m2 BKN
08:56 27 °F 23.2 °F 30.5 in Calm     85 % 0 in 26.0 W/m2 BKN
09:01 27.1 °F 23 °F 30.5 in Calm     84 % 0 in 37.0 W/m2 BKN
09:06 27.7 °F 23.4 °F 30.5 in Calm     84 % 0 in 44.0 W/m2 BKN
09:11 28.2 °F 24.1 °F 30.5 in Calm     84 % 0 in 62.0 W/m2 BKN
09:16 29.1 °F 24.3 °F 30.5 in Calm     82 % 0 in 65.0 W/m2 BKN
09:21 29.5 °F 24.6 °F 30.5 in Calm     82 % 0 in 63.0 W/m2 BKN
09:26 30.2 °F 25.2 °F 30.5 in Calm     81 % 0 in 83.0 W/m2 BKN
09:31 30.7 °F 25.3 °F 30.5 in Calm     80 % 0 in 100.0 W/m2 BKN
09:36 30.9 °F 25 °F 30.5 in Calm     78 % 0 in 95.0 W/m2 BKN
09:41 31.1 °F 24.6 °F 30.5 in Calm     77 % 0 in 151.0 W/m2 BKN
09:46 31.3 °F 24.6 °F 30.5 in Calm     76 % 0 in 163.0 W/m2 SCT
09:51 31.6 °F 25 °F 30.5 in Calm     76 % 0 in 132.0 W/m2 SCT
09:56 32.4 °F 25.3 °F 30.5 in Calm     75 % 0 in 171.0 W/m2 SCT
10:01 33.1 °F 25.3 °F 30.5 in Calm     73 % 0 in 185.0 W/m2 SCT
10:06 33.4 °F 25 °F 30.5 in Calm     71 % 0 in 109.0 W/m2 SCT
10:11 34.2 °F 26.1 °F 30.5 in Calm     72 % 0 in 216.0 W/m2 SCT
10:16 34.9 °F 25.9 °F 30.5 in Calm     69 % 0 in 121.0 W/m2 BKN
10:21 35.4 °F 25.5 °F 30.5 in Calm     67 % 0 in 239.0 W/m2 SCT
10:26 35.8 °F 25.9 °F 30.5 in Calm     67 % 0 in 225.0 W/m2 SCT
10:31 36.5 °F 26.6 °F 30.5 in Calm     67 % 0 in 264.0 W/m2 SCT
10:36 37 °F 26.4 °F 30.5 in Calm     65 % 0 in 274.0 W/m2 SCT
10:41 37.6 °F 26.1 °F 30.5 in Calm     63 % 0 in 285.0 W/m2 SCT
10:46 37.9 °F 26.4 °F 30.5 in Calm     63 % 0 in 294.0 W/m2 FEW
10:51 38.1 °F 26.8 °F 30.5 in Calm     63 % 0 in 306.0 W/m2 FEW
10:56 38.5 °F 26.2 °F 30.5 in Calm     61 % 0 in 315.0 W/m2 FEW
11:01 38.7 °F 27.1 °F 30.5 in Calm     63 % 0 in 323.0 W/m2 FEW
11:06 38.8 °F 27 °F 30.5 in Calm     62 % 0 in 332.0 W/m2 FEW
11:11 39.6 °F 27.9 °F 30.5 in Calm     63 % 0 in 343.0 W/m2 FEW
11:16 39.9 °F 27.7 °F 30.5 in Calm     61 % 0 in 350.0 W/m2 FEW
11:21 40.5 °F 28 °F 30.5 in Calm     61 % 0 in 359.0 W/m2 FEW
11:26 40.8 °F 27.7 °F 30.5 in Calm     59 % 0 in 366.0 W/m2 FEW
11:31 40.8 °F 27.7 °F 30.5 in Calm     59 % 0 in 373.0 W/m2 FEW
11:36 40.8 °F 27.7 °F 30.5 in Calm     59 % 0 in 381.0 W/m2 FEW
11:41 41.2 °F 27.9 °F 30.5 in Calm     59 % 0 in 387.0 W/m2 FEW
11:46 41.7 °F 28.4 °F 30.5 in Calm     59 % 0 in 394.0 W/m2 FEW
11:52 42.1 °F 27.3 °F 30.5 in Calm     56 % 0 in 401.0 W/m2 FEW
11:57 42.3 °F 27.7 °F 30.5 in Calm     56 % 0 in 406.0 W/m2 CLR
12:02 42.6 °F 28 °F 30.5 in Calm     56 % 0 in 411.0 W/m2 CLR
12:07 43.2 °F 27.1 °F 30.5 in Calm     53 % 0 in 415.0 W/m2 CLR
12:12 43.5 °F 27.9 °F 30.5 in Calm     54 % 0 in 422.0 W/m2 CLR
12:17 44.4 °F 28.4 °F 30.5 in Calm     53 % 0 in 429.0 W/m2 CLR
12:22 45.1 °F 28 °F 30.5 in Calm     51 % 0 in 432.0 W/m2 CLR
12:27 45.9 °F 28.8 °F 30.5 in Calm     51 % 0 in 436.0 W/m2 CLR
12:32 46.2 °F 28.6 °F 30.5 in Calm     50 % 0 in 436.0 W/m2 CLR
12:37 46.8 °F 28.9 °F 30.5 in Calm     50 % 0 in 441.0 W/m2 CLR
12:42 46.9 °F 28.2 °F 30.5 in Calm     48 % 0 in 443.0 W/m2 CLR
12:47 47.1 °F 28.4 °F 30.5 in Calm     48 % 0 in 445.0 W/m2 CLR
12:52 47.5 °F 28.2 °F 30.5 in Calm     47 % 0 in 448.0 W/m2 CLR
12:57 47.5 °F 28.2 °F 30.5 in Calm     47 % 0 in 448.0 W/m2 CLR
13:02 47.7 °F 27.9 °F 30.5 in Calm     46 % 0 in 452.0 W/m2 CLR
13:07 47.8 °F 27.5 °F 30.5 in Calm     45 % 0 in 452.0 W/m2 CLR
13:12 47.8 °F 29.1 °F 30.5 in Calm     48 % 0 in 450.0 W/m2 CLR
13:17 47.8 °F 27 °F 30.5 in Calm     44 % 0 in 452.0 W/m2 CLR
13:22 48 °F 26.1 °F 30.5 in Calm     42 % 0 in 450.0 W/m2 CLR
13:27 48.2 °F 24.4 °F 30.5 in Calm     39 % 0 in 448.0 W/m2 CLR
13:32 48.4 °F 23.4 °F 30.5 in Calm     37 % 0 in 448.0 W/m2 CLR
13:37 48.6 °F 23.4 °F 30.5 in Calm     37 % 0 in 446.0 W/m2 CLR
13:42 48.6 °F 22.8 °F 30.5 in Calm     36 % 0 in 436.0 W/m2 CLR
13:47 48.9 °F 22.5 °F 30.5 in Calm     35 % 0 in 436.0 W/m2 CLR
13:52 48.9 °F 22.5 °F 30.5 in Calm     35 % 0 in 422.0 W/m2 CLR
13:57 48.9 °F 22.5 °F 30.5 in Calm     35 % 0 in 427.0 W/m2 CLR
14:02 49.3 °F 21.4 °F 30.5 in Calm     33 % 0 in 427.0 W/m2 CLR
14:07 49.5 °F 22.8 °F 30.5 in Calm     35 % 0 in 425.0 W/m2 CLR
14:12 49.8 °F 22.5 °F 30.4 in Calm     34 % 0 in 418.0 W/m2 CLR
14:17 50.2 °F 23.5 °F 30.4 in Calm     35 % 0 in 410.0 W/m2 CLR
14:22 49.8 °F 23.4 °F 30.4 in Calm     35 % 0 in 403.0 W/m2 CLR
14:27 49.8 °F 24.4 °F 30.4 in Calm     37 % 0 in 406.0 W/m2 CLR
14:32 50 °F 22.6 °F 30.4 in Calm     34 % 0 in 401.0 W/m2 CLR
14:37 50.5 °F 23.2 °F 30.4 in Calm     34 % 0 in 388.0 W/m2 CLR
14:42 50.5 °F 24.4 °F 30.4 in Calm     36 % 0 in 385.0 W/m2 CLR
14:47 50.4 °F 24.4 °F 30.4 in Calm     36 % 0 in 373.0 W/m2 CLR
14:52 49.8 °F 27.1 °F 30.4 in Calm     41 % 0 in 371.0 W/m2 CLR
14:57 49.1 °F 28.8 °F 30.4 in Calm     45 % 0 in 364.0 W/m2 CLR
15:02 48.6 °F 28.2 °F 30.4 in Calm     45 % 0 in 355.0 W/m2 CLR
15:07 48.6 °F 29.1 °F 30.4 in Calm     47 % 0 in 346.0 W/m2 CLR
15:12 48.4 °F 29.1 °F 30.4 in Calm     47 % 0 in 338.0 W/m2 CLR
15:17 48.4 °F 29.5 °F 30.4 in Calm     48 % 0 in 327.0 W/m2 CLR
15:22 48.4 °F 29.7 °F 30.4 in Calm     48 % 0 in 315.0 W/m2 CLR
15:27 48.7 °F 30.6 °F 30.4 in Calm     49 % 0 in 306.0 W/m2 CLR
15:32 48.6 °F 29.8 °F 30.4 in Calm     48 % 0 in 297.0 W/m2 CLR
15:37 48 °F 29.7 °F 30.4 in Calm     49 % 0 in 287.0 W/m2 CLR
15:42 47.7 °F 29.5 °F 30.4 in Calm     49 % 0 in 274.0 W/m2 CLR
15:47 47.1 °F 28 °F 30.5 in Calm     47 % 0 in 260.0 W/m2 CLR
15:52 46.9 °F 27.7 °F 30.5 in Calm     47 % 0 in 248.0 W/m2 CLR
15:57 46.8 °F 27.1 °F 30.5 in Calm     46 % 0 in 236.0 W/m2 CLR
16:02 46.6 °F 27 °F 30.5 in Calm     46 % 0 in 221.0 W/m2 CLR
16:07 46.6 °F 26.4 °F 30.5 in Calm     45 % 0 in 204.0 W/m2 CLR
16:13 46.6 °F 26.2 °F 30.5 in Calm     45 % 0 in 190.0 W/m2 CLR
16:18 46.6 °F 26.8 °F 30.5 in Calm     46 % 0 in 176.0 W/m2 CLR
16:23 46.8 °F 27.5 °F 30.5 in Calm     47 % 0 in 162.0 W/m2 CLR
16:28 46.9 °F 27.7 °F 30.5 in Calm     47 % 0 in 146.0 W/m2 CLR
16:33 46.9 °F 26.8 °F 30.5 in Calm     45 % 0 in 132.0 W/m2 CLR
16:38 47.5 °F 27.7 °F 30.5 in Calm     46 % 0 in 118.0 W/m2 CLR
16:43 47.8 °F 27.5 °F 30.5 in Calm     45 % 0 in 105.0 W/m2 CLR
16:48 47.7 °F 26.2 °F 30.5 in Calm     43 % 0 in 90.0 W/m2 CLR
16:53 47.1 °F 26.2 °F 30.5 in Calm     44 % 0 in 79.0 W/m2 CLR
16:58 46.8 °F 25.9 °F 30.5 in Calm     44 % 0 in 62.0 W/m2 CLR
17:03 46 °F 24.3 °F 30.5 in Calm     42 % 0 in 56.0 W/m2 OVC
17:08 45.3 °F 24.3 °F 30.5 in Calm     43 % 0 in 40.0 W/m2 OVC
17:13 45 °F 23.7 °F 30.5 in Calm     43 % 0 in 30.0 W/m2 OVC
17:18 44.8 °F 24.1 °F 30.5 in Calm     44 % 0 in 23.0 W/m2 OVC
17:23 44.2 °F 24.3 °F 30.5 in Calm     45 % 0 in 18.0 W/m2 OVC
17:28 43.9 °F 24.3 °F 30.5 in Calm     46 % 0 in 14.0 W/m2 OVC
17:33 43.3 °F 24.4 °F 30.5 in Calm     47 % 0 in 12.0 W/m2 OVC
17:38 42.6 °F 24.3 °F 30.5 in Calm     48 % 0 in 12.0 W/m2 OVC
17:43 42.3 °F 24.4 °F 30.5 in Calm     49 % 0 in 9.0 W/m2 OVC
17:48 41.7 °F 24.1 °F 30.5 in Calm     49 % 0 in 5.0 W/m2 OVC
17:53 41.5 °F 23.7 °F 30.5 in Calm     49 % 0 in 0.0 W/m2 CLR
17:58 41.4 °F 23.5 °F 30.5 in Calm     49 % 0 in 0.0 W/m2 CLR
18:03 41.2 °F 23.9 °F 30.5 in Calm     50 % 0 in 0.0 W/m2 CLR
18:08 40.6 °F 24.4 °F 30.5 in Calm     52 % 0 in 0.0 W/m2 CLR
18:13 40.3 °F 24.1 °F 30.5 in Calm     52 % 0 in 0.0 W/m2 CLR
18:18 39.7 °F 24.4 °F 30.5 in Calm     54 % 0 in 0.0 W/m2 CLR
18:23 39.2 °F 23.9 °F 30.5 in Calm     54 % 0 in 0.0 W/m2 CLR
18:28 38.8 °F 24.4 °F 30.5 in Calm     56 % 0 in 0.0 W/m2 CLR
18:33 38.3 °F 24.8 °F 30.5 in Calm     58 % 0 in 0.0 W/m2 CLR
18:38 37.9 °F 24.4 °F 30.5 in Calm     58 % 0 in 0.0 W/m2 CLR
18:43 37.6 °F 25 °F 30.5 in Calm     60 % 0 in 0.0 W/m2 CLR
18:48 37 °F 25.3 °F 30.5 in Calm     62 % 0 in 0.0 W/m2 CLR
18:53 36.3 °F 25.3 °F 30.5 in Calm     64 % 0 in 0.0 W/m2 CLR
18:58 36 °F 25 °F 30.5 in Calm     64 % 0 in 0.0 W/m2 CLR
19:03 35.6 °F 25.3 °F 30.5 in Calm     66 % 0 in 0.0 W/m2 CLR
19:08 35.2 °F 25.3 °F 30.5 in Calm     67 % 0 in 0.0 W/m2 CLR
19:13 34.9 °F 25 °F 30.5 in Calm     67 % 0 in 0.0 W/m2 CLR
19:18 34.3 °F 25 °F 30.5 in Calm     68 % 0 in 0.0 W/m2 CLR
19:23 34 °F 24.8 °F 30.5 in Calm     69 % 0 in 0.0 W/m2 CLR
19:28 33.4 °F 24.8 °F 30.5 in Calm     70 % 0 in 0.0 W/m2 CLR
19:33 33.3 °F 25 °F 30.5 in Calm     71 % 0 in 0.0 W/m2 CLR
19:38 32.9 °F 25 °F 30.5 in Calm     72 % 0 in 0.0 W/m2 CLR
19:43 32.7 °F 25 °F 30.5 in Calm     73 % 0 in 0.0 W/m2 CLR
19:48 32.4 °F 24.6 °F 30.5 in Calm     73 % 0 in 0.0 W/m2 CLR
19:53 32.2 °F 24.8 °F 30.5 in Calm     74 % 0 in 0.0 W/m2 CLR
19:58 32 °F 25 °F 30.5 in Calm     75 % 0 in 0.0 W/m2 CLR
20:03 31.8 °F 25 °F 30.5 in Calm     75 % 0 in 0.0 W/m2 CLR
20:08 31.6 °F 24.6 °F 30.5 in Calm     75 % 0 in 0.0 W/m2 CLR
20:13 31.3 °F 24.4 °F 30.5 in Calm     76 % 0 in 0.0 W/m2 CLR
20:18 30.9 °F 24.4 °F 30.5 in Calm     77 % 0 in 0.0 W/m2 CLR
20:23 30.7 °F 24.6 °F 30.5 in Calm     78 % 0 in 0.0 W/m2 CLR
20:28 30.6 °F 24.4 °F 30.5 in Calm     78 % 0 in 0.0 W/m2 CLR
20:33 30.4 °F 24.4 °F 30.5 in Calm     78 % 0 in 0.0 W/m2 CLR
20:38 30.4 °F 24.6 °F 30.5 in Calm     79 % 0 in 0.0 W/m2 CLR
20:43 30 °F 24.4 °F 30.5 in Calm     79 % 0 in 0.0 W/m2 CLR
20:48 30 °F 24.6 °F 30.5 in Calm     80 % 0 in 0.0 W/m2 CLR
20:53 30 °F 24.4 °F 30.5 in Calm     79 % 0 in 0.0 W/m2 CLR
20:58 30 °F 24.3 °F 30.5 in Calm     79 % 0 in 0.0 W/m2 CLR
21:03 29.8 °F 24.4 °F 30.5 in Calm     80 % 0 in 0.0 W/m2 CLR
21:08 29.7 °F 24.3 °F 30.5 in Calm     80 % 0 in 0.0 W/m2 CLR
21:13 29.5 °F 24.1 °F 30.5 in Calm     80 % 0 in 0.0 W/m2 CLR
21:18 29.5 °F 24.1 °F 30.5 in Calm     80 % 0 in 0.0 W/m2 CLR
21:23 29.5 °F 24.3 °F 30.5 in Calm     81 % 0 in 0.0 W/m2 CLR
21:28 29.3 °F 24.3 °F 30.5 in Calm     81 % 0 in 0.0 W/m2 CLR
21:33 29.1 °F 24.1 °F 30.5 in Calm     81 % 0 in 0.0 W/m2 CLR
21:38 29.1 °F 24.1 °F 30.5 in Calm     81 % 0 in 0.0 W/m2 CLR
21:44 29.1 °F 24.1 °F 30.5 in Calm     81 % 0 in 0.0 W/m2 CLR
21:49 29.1 °F 24.1 °F 30.5 in Calm     81 % 0 in 0.0 W/m2 CLR
21:54 29.1 °F 24.1 °F 30.5 in Calm     81 % 0 in 0.0 W/m2 CLR
21:59 29.1 °F 24.1 °F 30.5 in Calm     81 % 0 in 0.0 W/m2 CLR
22:04 29.3 °F 24.3 °F 30.5 in Calm     81 % 0 in 0.0 W/m2 CLR
22:09 29.3 °F 24.3 °F 30.5 in Calm     81 % 0 in 0.0 W/m2 CLR
22:14 29.5 °F 24.3 °F 30.5 in Calm     81 % 0 in 0.0 W/m2 CLR
22:19 29.1 °F 24.1 °F 30.5 in Calm     81 % 0 in 0.0 W/m2 CLR
22:24 29.3 °F 23.9 °F 30.5 in Calm     80 % 0 in 0.0 W/m2 CLR
22:29 29.3 °F 23.9 °F 30.5 in Calm     80 % 0 in 0.0 W/m2 CLR
22:34 29.5 °F 23.7 °F 30.5 in Calm     79 % 0 in 0.0 W/m2 CLR
22:39 29.5 °F 23.7 °F 30.5 in Calm     79 % 0 in 0.0 W/m2 CLR
22:44 29.5 °F 23.7 °F 30.5 in Calm     79 % 0 in 0.0 W/m2 CLR
22:49 29.5 °F 23.7 °F 30.5 in Calm     79 % 0 in 0.0 W/m2 CLR
22:54 29.5 °F 23.7 °F 30.5 in Calm     79 % 0 in 0.0 W/m2 CLR
22:59 29.5 °F 23.7 °F 30.5 in Calm     79 % 0 in 0.0 W/m2 CLR
23:04 29.5 °F 23.7 °F 30.5 in Calm     79 % 0 in 0.0 W/m2 CLR
23:09 29.1 °F 23.7 °F 30.5 in Calm     80 % 0 in 0.0 W/m2 CLR
23:14 28.9 °F 23.5 °F 30.5 in Calm     80 % 0 in 0.0 W/m2 CLR
23:19 28.8 °F 23.7 °F 30.5 in Calm     81 % 0 in 0.0 W/m2 CLR
23:24 28.8 °F 23.5 °F 30.5 in Calm     81 % 0 in 0.0 W/m2 CLR
23:29 28.6 °F 23.4 °F 30.5 in Calm     81 % 0 in 0.0 W/m2 CLR
23:34 28.4 °F 23.5 °F 30.5 in Calm     82 % 0 in 0.0 W/m2 CLR
23:39 28.2 °F 23.5 °F 30.5 in Calm     82 % 0 in 0.0 W/m2 CLR
23:44 28.2 °F 23.5 °F 30.5 in Calm     82 % 0 in 0.0 W/m2 CLR
23:49 28.4 °F 23.4 °F 30.5 in Calm     81 % 0 in 0.0 W/m2 CLR
23:54 28.2 °F 23.2 °F 30.5 in Calm     81 % 0 in 0.0 W/m2 CLR
23:59 28.2 °F 23.2 °F 30.5 in Calm     81 % 0 in 0.0 W/m2 CLR
Lo Temps de Massalio
Compliments of Weather Underground - 1.25 mb